Portada
METAR-TAF:

METAR-TAF

Aeropuertos :

Tajima, Japón

latitud: 35-31N, longitud: 134-48E, altitud: 210 m

Observación

El informe se hizo hace 20 minutos, a las 01:00 UTC
Viento 3 kt del suroeste, variando entre sur-sureste y oeste
Temperatura 11°C
Humedad 82%
Presión 1018 hPa
Visibilidad 10 km o más
Escasas nubes a una altura de 3000 ft
Cielo nuboso a una altura de 4000 ft

METAR: RJBT 310100Z 22003KT 160V280 9999 FEW030 BKN040 11/08 Q1018

Hora: 10:20 (01:20 UTC)


TAF: falta

Observaciones y pronósticos meteorológicos de más de 4000 aeropuertos (mensajes METAR y TAF).

Los puntos amarillos y rojos representan las estaciones disponibles.

Ponga el ratón en el punto deseado para ver el nombre de la estación.

Haga clic para ver las observaciones y los pronósticos meteorológicos.

Para cambiar el mapa : haga clic en los botones verdes con una cruz de color negro para hacer un zoom, en el botón verde con un guión para alejar o en las flechas verdes para mapas adyacentes.


METAR-TAF: